createdAt,value
2019-01-04T00:01:57.324Z,5.70
2019-01-04T00:04:28.786Z,5.73
2019-01-04T00:06:58.282Z,6.63
2019-01-04T00:09:39.830Z,5.47
2019-01-04T00:12:09.421Z,6.50
2019-01-04T00:14:38.931Z,7.07
2019-01-04T00:17:08.548Z,8.57
2019-01-04T00:19:38.138Z,7.10
2019-01-04T00:22:07.670Z,6.62
2019-01-04T00:24:37.338Z,6.80
2019-01-04T00:27:06.962Z,5.87
2019-01-04T00:29:36.471Z,6.73
2019-01-04T00:32:19.268Z,7.10
2019-01-04T00:34:42.971Z,6.80
2019-01-04T00:37:12.530Z,5.80
2019-01-04T00:39:42.095Z,6.20
2019-01-04T00:42:11.659Z,7.20
2019-01-04T00:44:41.333Z,5.50
2019-01-04T00:47:10.943Z,6.13
2019-01-04T00:49:40.980Z,6.15
2019-01-04T00:52:11.039Z,6.45
2019-01-04T00:54:41.093Z,7.83
2019-01-04T00:57:41.633Z,6.53
2019-01-04T01:00:49.681Z,6.87
2019-01-04T01:04:02.628Z,5.83
2019-01-04T01:07:10.647Z,6.77
2019-01-04T01:10:19.522Z,5.42
2019-01-04T01:13:27.595Z,6.03
2019-01-04T01:16:35.623Z,6.43
2019-01-04T01:19:43.660Z,5.83
2019-01-04T01:22:51.687Z,5.67
2019-01-04T01:25:59.725Z,6.00
2019-01-04T01:29:14.964Z,6.23
2019-01-04T01:32:23.058Z,6.83
2019-01-04T01:35:16.448Z,5.47
2019-01-04T01:38:24.467Z,6.45
2019-01-04T01:41:21.104Z,6.70
2019-01-04T01:44:29.155Z,6.10
2019-01-04T01:47:23.404Z,6.33
2019-01-04T01:50:31.441Z,5.73
2019-01-04T01:53:02.587Z,6.90
2019-01-04T01:55:32.147Z,5.83
2019-01-04T01:58:02.005Z,5.67
2019-01-04T02:00:31.556Z,6.33
2019-01-04T02:03:01.493Z,5.78
2019-01-04T02:05:31.058Z,6.35
2019-01-04T02:08:00.643Z,7.13
2019-01-04T02:10:42.457Z,6.90
2019-01-04T02:13:12.045Z,7.00
2019-01-04T02:15:41.553Z,6.57
2019-01-04T02:18:11.331Z,7.62
2019-01-04T02:23:30.253Z,7.03
2019-01-04T02:25:59.795Z,5.57
2019-01-04T02:28:29.373Z,6.92
2019-01-04T02:34:12.534Z,6.80
2019-01-04T02:36:42.136Z,7.60
2019-01-04T02:39:11.672Z,7.30
2019-01-04T02:44:35.784Z,6.77
2019-01-04T02:47:24.466Z,7.42
2019-01-04T02:49:53.973Z,7.43
2019-01-04T02:52:23.455Z,7.53
2019-01-04T02:54:52.969Z,7.67
2019-01-04T02:57:34.242Z,7.95
2019-01-04T03:00:24.591Z,6.80
2019-01-04T03:02:54.229Z,6.92
2019-01-04T03:05:23.748Z,8.33
2019-01-04T03:10:47.809Z,6.80
2019-01-04T03:13:17.296Z,6.90
2019-01-04T03:15:46.807Z,6.80
2019-01-04T03:18:16.321Z,7.25
2019-01-04T03:20:45.848Z,7.80
2019-01-04T03:23:15.406Z,7.63
2019-01-04T03:25:44.920Z,6.63
2019-01-04T03:28:14.428Z,6.42
2019-01-04T03:30:44.053Z,8.10
2019-01-04T03:33:15.178Z,7.27
2019-01-04T03:35:44.823Z,7.23
2019-01-04T03:38:14.359Z,7.27
2019-01-04T03:40:43.906Z,7.03
2019-01-04T03:43:13.450Z,8.37
2019-01-04T03:46:02.679Z,7.17
2019-01-04T03:48:32.199Z,7.17
2019-01-04T03:53:50.257Z,8.90
2019-01-04T03:56:19.949Z,7.37
2019-01-04T03:58:49.473Z,8.43
2019-01-04T04:01:18.941Z,8.30
2019-01-04T04:03:48.480Z,8.33
2019-01-04T04:06:18.011Z,8.20
2019-01-04T04:08:47.503Z,7.87
2019-01-04T04:11:36.345Z,9.30
2019-01-04T04:14:24.934Z,8.30
2019-01-04T04:16:54.481Z,9.00
2019-01-04T04:19:24.201Z,7.97
2019-01-04T04:21:53.791Z,9.12
2019-01-04T04:27:04.252Z,9.30
2019-01-04T04:29:33.780Z,10.00
2019-01-04T04:32:15.159Z,9.13
2019-01-04T04:34:44.697Z,8.38
2019-01-04T04:37:14.200Z,9.03
2019-01-04T04:39:43.739Z,10.00
2019-01-04T04:42:13.324Z,10.10
2019-01-04T04:44:42.829Z,9.78
2019-01-04T04:47:12.314Z,10.20
2019-01-04T04:49:42.075Z,11.88
2019-01-04T04:52:11.962Z,10.90
2019-01-04T04:54:41.984Z,9.20
2019-01-04T04:57:11.945Z,9.70
2019-01-04T05:00:01.687Z,12.45
2019-01-04T05:02:32.830Z,9.03
2019-01-04T05:05:02.378Z,9.60
2019-01-04T05:07:31.953Z,9.43
2019-01-04T05:12:55.407Z,8.73
2019-01-04T05:15:24.967Z,9.03
2019-01-04T05:17:54.523Z,8.30
2019-01-04T05:20:24.098Z,6.60
2019-01-04T05:22:55.193Z,7.63
2019-01-04T05:25:24.770Z,7.50
2019-01-04T05:27:54.291Z,9.03
2019-01-04T05:30:36.016Z,7.37
2019-01-04T05:33:05.512Z,7.10
2019-01-04T05:35:35.034Z,7.83
2019-01-04T05:38:04.594Z,7.67
2019-01-04T05:40:35.736Z,8.33
2019-01-04T05:43:05.237Z,6.78
2019-01-04T05:45:34.781Z,6.35
2019-01-04T05:48:04.289Z,7.00
2019-01-04T05:50:33.771Z,6.83
2019-01-04T05:53:03.336Z,5.10
2019-01-04T05:55:32.786Z,6.70
2019-01-04T06:01:16.117Z,5.90
2019-01-04T06:03:45.677Z,5.80
2019-01-04T06:06:15.223Z,8.50
2019-01-04T06:08:44.822Z,8.47
2019-01-04T06:11:14.342Z,9.20
2019-01-04T06:13:43.838Z,10.47
2019-01-04T06:16:32.455Z,8.70
2019-01-04T06:19:02.039Z,7.17
2019-01-04T06:21:31.523Z,7.47
2019-01-04T06:24:01.151Z,7.10
2019-01-04T06:26:30.652Z,5.70
2019-01-04T06:29:00.153Z,7.17
2019-01-04T06:31:48.978Z,6.27
2019-01-04T06:34:18.493Z,6.00
2019-01-04T06:36:47.945Z,9.90
2019-01-04T06:39:17.486Z,6.40
2019-01-04T06:41:47.070Z,6.80
2019-01-04T06:44:16.631Z,7.30
2019-01-04T06:47:24.646Z,6.27
2019-01-04T06:49:54.204Z,4.97
2019-01-04T06:52:24.087Z,5.43
2019-01-04T06:55:32.135Z,6.47
2019-01-04T06:58:01.703Z,6.40
2019-01-04T07:03:25.477Z,5.63
2019-01-04T07:05:54.994Z,5.50
2019-01-04T07:08:24.572Z,6.20
2019-01-04T07:10:54.108Z,4.43
2019-01-04T07:13:23.658Z,4.70
2019-01-04T07:15:53.174Z,5.17
2019-01-04T07:18:22.708Z,5.73
2019-01-04T07:20:52.442Z,4.57
2019-01-04T07:23:21.910Z,4.83
2019-01-04T07:25:51.447Z,5.23
2019-01-04T07:28:20.946Z,6.03
2019-01-04T07:30:50.555Z,5.80
2019-01-04T07:33:20.124Z,6.28
2019-01-04T07:35:49.603Z,6.58
2019-01-04T07:38:19.189Z,6.57
2019-01-04T07:40:48.783Z,6.37
2019-01-04T07:43:18.258Z,6.40
2019-01-04T07:45:47.838Z,6.65
2019-01-04T07:48:17.308Z,5.60
2019-01-04T07:50:46.817Z,5.90
2019-01-04T07:53:16.291Z,6.10
2019-01-04T07:55:45.806Z,6.07
2019-01-04T07:58:16.897Z,5.40
2019-01-04T08:01:05.762Z,5.93
2019-01-04T08:03:35.289Z,5.90
2019-01-04T08:06:04.849Z,6.00
2019-01-04T08:08:53.617Z,6.40
2019-01-04T08:11:23.122Z,5.03
2019-01-04T08:13:52.579Z,5.37
2019-01-04T08:16:22.112Z,6.85
2019-01-04T08:18:51.616Z,6.20
2019-01-04T08:21:21.209Z,6.30
2019-01-04T08:23:52.291Z,5.60
2019-01-04T08:26:21.833Z,5.15
2019-01-04T08:28:51.414Z,5.65
2019-01-04T08:31:20.945Z,6.07
2019-01-04T08:33:50.537Z,6.70
2019-01-04T08:36:20.034Z,5.63
2019-01-04T08:38:49.585Z,6.40
2019-01-04T08:41:19.106Z,6.00
2019-01-04T08:43:48.614Z,5.73
2019-01-04T08:46:18.113Z,5.70
2019-01-04T08:48:47.666Z,4.33
2019-01-04T08:51:36.194Z,4.35
2019-01-04T08:54:07.941Z,5.13
2019-01-04T08:56:38.697Z,4.40
2019-01-04T08:59:08.188Z,5.40
2019-01-04T09:01:37.698Z,4.92
2019-01-04T09:04:07.174Z,3.70
2019-01-04T09:06:49.356Z,5.10
2019-01-04T09:09:18.937Z,5.72
2019-01-04T09:11:48.485Z,4.93
2019-01-04T09:14:18.010Z,6.20
2019-01-04T09:17:06.800Z,4.65
2019-01-04T09:19:55.608Z,6.30
2019-01-04T09:22:25.139Z,6.10
2019-01-04T09:24:54.634Z,5.20
2019-01-04T09:27:24.162Z,6.73
2019-01-04T09:29:53.678Z,6.77
2019-01-04T09:32:23.283Z,6.40
2019-01-04T09:34:52.804Z,5.37
2019-01-04T09:37:22.323Z,5.00
2019-01-04T09:39:51.824Z,4.77
2019-01-04T09:42:23.432Z,5.37
2019-01-04T09:44:53.181Z,4.60
2019-01-04T09:47:22.812Z,5.60
2019-01-04T09:49:52.291Z,5.77
2019-01-04T09:52:21.862Z,5.55
2019-01-04T09:54:51.375Z,4.83
2019-01-04T09:57:23.621Z,7.00
2019-01-04T10:00:12.811Z,5.13
2019-01-04T10:02:47.908Z,5.83
2019-01-04T10:05:17.469Z,6.30
2019-01-04T10:10:28.729Z,5.13
2019-01-04T10:12:58.260Z,4.97
2019-01-04T10:15:27.795Z,3.87
2019-01-04T10:17:57.290Z,4.23
2019-01-04T10:20:27.108Z,4.87
2019-01-04T10:22:57.150Z,4.17
2019-01-04T10:25:27.125Z,4.80
2019-01-04T10:27:57.086Z,3.70
2019-01-04T10:30:27.977Z,5.78
2019-01-04T10:32:57.490Z,5.20
2019-01-04T10:35:27.264Z,5.78
2019-01-04T10:37:57.134Z,5.35
2019-01-04T10:40:27.225Z,4.75
2019-01-04T10:42:57.249Z,3.87
2019-01-04T10:45:27.236Z,5.65
2019-01-04T10:47:57.466Z,3.50
2019-01-04T10:50:46.020Z,4.40
2019-01-04T10:53:15.557Z,5.70
2019-01-04T10:55:45.077Z,3.85
2019-01-04T10:58:14.612Z,4.40
2019-01-04T11:01:03.184Z,5.10
2019-01-04T11:03:32.681Z,4.30
2019-01-04T11:06:02.155Z,4.30
2019-01-04T11:08:31.703Z,3.50
2019-01-04T11:11:01.388Z,4.00
2019-01-04T11:13:30.942Z,4.30
2019-01-04T11:16:00.426Z,4.40
2019-01-04T11:18:29.966Z,4.00
2019-01-04T11:21:11.832Z,3.60
2019-01-04T11:24:19.843Z,4.10
2019-01-04T11:26:53.821Z,4.40
2019-01-04T11:30:02.208Z,3.53
2019-01-04T11:33:10.308Z,4.13
2019-01-04T11:36:05.909Z,4.13
2019-01-04T11:38:47.775Z,4.10
2019-01-04T11:41:41.531Z,3.87
2019-01-04T11:44:49.552Z,2.90
2019-01-04T11:47:42.197Z,3.80
2019-01-04T11:50:50.301Z,3.20
2019-01-04T11:53:39.940Z,3.60
2019-01-04T11:56:09.424Z,4.50
2019-01-04T12:01:27.476Z,3.53
2019-01-04T12:03:58.649Z,4.10
2019-01-04T12:06:28.287Z,3.87
2019-01-04T12:08:57.815Z,4.57
2019-01-04T12:11:27.343Z,3.50
2019-01-04T12:14:16.240Z,4.03
2019-01-04T12:16:45.791Z,4.25
2019-01-04T12:19:15.312Z,4.30
2019-01-04T12:21:44.890Z,4.00
2019-01-04T12:24:14.413Z,3.37
2019-01-04T12:29:25.322Z,3.95
2019-01-04T12:31:54.893Z,3.50
2019-01-04T12:34:24.381Z,3.40
2019-01-04T12:36:53.932Z,3.73
2019-01-04T12:39:23.392Z,3.27
2019-01-04T12:41:53.122Z,3.07
2019-01-04T12:44:22.659Z,4.30
2019-01-04T12:46:52.238Z,5.43
2019-01-04T12:49:21.804Z,4.07
2019-01-04T12:51:51.322Z,3.80
2019-01-04T12:54:20.913Z,3.67
2019-01-04T12:59:45.962Z,3.53
2019-01-04T13:02:15.602Z,5.57
2019-01-04T13:04:45.167Z,4.05
2019-01-04T13:07:15.151Z,4.45
2019-01-04T13:09:44.624Z,4.00
2019-01-04T13:12:14.206Z,3.85
2019-01-04T13:14:43.852Z,4.63
2019-01-04T13:17:13.425Z,4.93
2019-01-04T13:19:43.007Z,4.90
2019-01-04T13:22:12.562Z,4.30
2019-01-04T13:24:42.096Z,5.10
2019-01-04T13:27:11.648Z,5.57
2019-01-04T13:29:41.171Z,5.10
2019-01-04T13:32:10.720Z,5.60
2019-01-04T13:34:47.351Z,4.67
2019-01-04T13:37:16.896Z,4.63
2019-01-04T13:39:46.420Z,4.83
2019-01-04T13:42:15.986Z,3.20
2019-01-04T13:44:45.493Z,3.35
2019-01-04T13:47:14.972Z,4.50
2019-01-04T13:49:44.532Z,3.37
2019-01-04T13:52:14.044Z,5.23
2019-01-04T13:54:43.581Z,3.65
2019-01-04T13:57:13.093Z,5.40
2019-01-04T13:59:42.566Z,5.27
2019-01-04T14:02:12.097Z,3.87
2019-01-04T14:04:41.629Z,4.42
2019-01-04T14:07:11.174Z,5.37
2019-01-04T14:09:40.632Z,5.23
2019-01-04T14:14:51.735Z,4.67
2019-01-04T14:17:21.288Z,4.30
2019-01-04T14:19:50.789Z,5.10
2019-01-04T14:22:20.428Z,4.73
2019-01-04T14:24:49.947Z,4.70
2019-01-04T14:27:19.496Z,4.07
2019-01-04T14:29:49.179Z,5.37
2019-01-04T14:32:18.749Z,5.00
2019-01-04T14:34:48.283Z,4.90
2019-01-04T14:37:17.922Z,4.80
2019-01-04T14:39:47.394Z,4.97
2019-01-04T14:42:16.890Z,4.60
2019-01-04T14:44:46.442Z,4.45
2019-01-04T14:47:16.020Z,5.00
2019-01-04T14:49:45.725Z,7.90
2019-01-04T14:52:15.290Z,5.80
2019-01-04T14:54:44.831Z,5.60
2019-01-04T14:57:14.332Z,6.70
2019-01-04T14:59:43.929Z,6.30
2019-01-04T15:02:13.430Z,7.23
2019-01-04T15:04:42.987Z,6.30
2019-01-04T15:07:12.551Z,7.08
2019-01-04T15:09:42.099Z,7.40
2019-01-04T15:12:11.597Z,6.97
2019-01-04T15:14:41.135Z,5.58
2019-01-04T15:17:10.665Z,5.53
2019-01-04T15:19:40.226Z,5.55
2019-01-04T15:22:09.746Z,5.35
2019-01-04T15:24:39.347Z,4.90
2019-01-04T15:27:08.811Z,6.70
2019-01-04T15:29:38.334Z,5.83
2019-01-04T15:32:07.905Z,5.93
2019-01-04T15:34:37.440Z,6.70
2019-01-04T15:37:07.024Z,6.17
2019-01-04T15:39:36.506Z,6.27
2019-01-04T15:42:05.975Z,7.60
2019-01-04T15:44:35.507Z,7.50
2019-01-04T15:47:05.020Z,7.77
2019-01-04T15:49:34.567Z,6.37
2019-01-04T15:52:04.104Z,6.20
2019-01-04T15:54:52.933Z,6.67
2019-01-04T15:57:41.777Z,6.40
2019-01-04T16:00:12.832Z,7.12
2019-01-04T16:02:43.397Z,9.17
2019-01-04T16:05:12.957Z,6.80
2019-01-04T16:07:42.450Z,7.12
2019-01-04T16:10:12.085Z,7.67
2019-01-04T16:12:41.588Z,11.90
2019-01-04T16:15:11.155Z,6.57
2019-01-04T16:17:40.700Z,7.27
2019-01-04T16:20:30.366Z,5.80
2019-01-04T16:22:59.878Z,6.13
2019-01-04T16:25:35.340Z,6.90
2019-01-04T16:28:04.921Z,6.22
2019-01-04T16:30:34.548Z,5.78
2019-01-04T16:33:04.387Z,6.90
2019-01-04T16:35:33.945Z,5.73
2019-01-04T16:38:15.682Z,6.03
2019-01-04T16:40:45.239Z,7.03
2019-01-04T16:43:14.774Z,5.67
2019-01-04T16:45:50.203Z,6.50
2019-01-04T16:48:19.901Z,7.55
2019-01-04T16:50:49.519Z,6.42
2019-01-04T16:53:18.998Z,6.50
2019-01-04T16:55:48.531Z,5.95
2019-01-04T16:58:18.083Z,7.20
2019-01-04T17:00:47.691Z,6.37
2019-01-04T17:03:17.179Z,6.10
2019-01-04T17:08:27.910Z,6.83
2019-01-04T17:11:09.289Z,7.10
2019-01-04T17:13:38.867Z,8.17
2019-01-04T17:16:08.509Z,5.55
2019-01-04T17:18:38.178Z,6.17
2019-01-04T17:21:08.242Z,6.87
2019-01-04T17:23:42.861Z,6.20
2019-01-04T17:26:12.781Z,5.20
2019-01-04T17:28:42.368Z,5.95
2019-01-04T17:31:11.905Z,5.70
2019-01-04T17:33:41.417Z,6.03
2019-01-04T17:36:10.953Z,5.37
2019-01-04T17:38:40.667Z,5.00
2019-01-04T17:41:10.708Z,6.43
2019-01-04T17:43:40.596Z,6.27
2019-01-04T17:46:10.403Z,6.58
2019-01-04T17:48:41.826Z,5.28
2019-01-04T17:51:11.699Z,5.50
2019-01-04T17:53:41.632Z,6.63
2019-01-04T17:56:11.661Z,9.70
2019-01-04T17:59:00.475Z,6.10
2019-01-04T18:01:30.240Z,5.60
2019-01-04T18:04:00.055Z,7.00
2019-01-04T18:06:36.013Z,5.87
2019-01-04T18:09:08.089Z,5.97
2019-01-04T18:11:37.909Z,6.03
2019-01-04T18:14:07.719Z,5.40
2019-01-04T18:16:37.754Z,5.00
2019-01-04T18:19:07.827Z,5.00
2019-01-04T18:21:37.574Z,5.10
2019-01-04T18:24:07.503Z,6.10
2019-01-04T18:26:37.322Z,5.93
2019-01-04T18:29:07.241Z,4.60
2019-01-04T18:31:37.280Z,5.43
2019-01-04T18:34:07.074Z,5.03
2019-01-04T18:36:36.792Z,5.47
2019-01-04T18:42:30.813Z,4.80
2019-01-04T18:47:42.256Z,4.90
2019-01-04T18:50:23.134Z,5.27
2019-01-04T18:52:52.637Z,3.70
2019-01-04T18:55:22.153Z,5.17
2019-01-04T18:57:51.749Z,4.87
2019-01-04T19:00:21.262Z,5.30
2019-01-04T19:02:51.058Z,5.40
2019-01-04T19:05:20.559Z,4.33
2019-01-04T19:07:50.141Z,3.83
2019-01-04T19:10:19.644Z,4.47
2019-01-04T19:12:49.178Z,4.05
2019-01-04T19:15:18.701Z,4.53
2019-01-04T19:17:49.826Z,3.47
2019-01-04T19:20:20.975Z,3.80
2019-01-04T19:22:50.529Z,4.80
2019-01-04T19:25:20.010Z,3.75
2019-01-04T19:27:49.539Z,4.57
2019-01-04T19:30:19.112Z,4.17
2019-01-04T19:33:07.779Z,4.40
2019-01-04T19:35:37.241Z,4.77
2019-01-04T19:38:06.856Z,3.67
2019-01-04T19:40:36.399Z,4.30
2019-01-04T19:43:06.000Z,3.80
2019-01-04T19:45:37.195Z,4.20
2019-01-04T19:48:26.063Z,4.80
2019-01-04T19:50:55.597Z,3.70
2019-01-04T19:53:25.162Z,4.13
2019-01-04T19:55:54.691Z,4.40
2019-01-04T19:58:24.287Z,4.80
2019-01-04T20:00:53.859Z,4.72
2019-01-04T20:03:23.441Z,3.63
2019-01-04T20:06:53.523Z,4.40
2019-01-04T20:10:20.639Z,3.60
2019-01-04T20:13:49.382Z,4.60
2019-01-04T20:17:04.078Z,4.47
2019-01-04T20:19:47.097Z,5.17
2019-01-04T20:22:35.241Z,5.07
2019-01-04T20:25:24.163Z,5.07
2019-01-04T20:28:12.732Z,5.67
2019-01-04T20:31:01.274Z,5.10
2019-01-04T20:33:50.728Z,5.25
2019-01-04T20:36:39.319Z,4.53
2019-01-04T20:39:27.948Z,6.20
2019-01-04T20:42:16.475Z,4.50
2019-01-04T20:45:05.049Z,5.20
2019-01-04T20:47:53.629Z,4.30
2019-01-04T20:50:42.183Z,4.40
2019-01-04T20:53:30.834Z,4.10
2019-01-04T20:56:19.373Z,4.00
2019-01-04T20:59:07.947Z,4.70
2019-01-04T21:01:56.507Z,5.30
2019-01-04T21:04:45.106Z,4.23
2019-01-04T21:07:52.812Z,3.90
2019-01-04T21:10:41.344Z,4.90
2019-01-04T21:13:29.959Z,4.57
2019-01-04T21:16:18.532Z,4.07
2019-01-04T21:19:07.171Z,4.60
2019-01-04T21:21:55.656Z,4.47
2019-01-04T21:24:44.236Z,4.07
2019-01-04T21:27:32.824Z,4.15
2019-01-04T21:30:21.380Z,4.60
2019-01-04T21:33:04.009Z,4.60
2019-01-04T21:36:11.614Z,3.37
2019-01-04T21:39:00.262Z,4.57
2019-01-04T21:41:51.015Z,5.03
2019-01-04T21:44:39.735Z,4.57
2019-01-04T21:47:28.275Z,3.97
2019-01-04T21:50:16.979Z,3.80
2019-01-04T21:53:05.571Z,4.57
2019-01-04T21:55:54.186Z,4.03
2019-01-04T21:58:42.941Z,4.10
2019-01-04T22:01:31.465Z,3.33
2019-01-04T22:04:20.077Z,5.67
2019-01-04T22:07:08.733Z,4.43
2019-01-04T22:09:57.326Z,3.53
2019-01-04T22:12:45.878Z,3.03
2019-01-04T22:15:53.771Z,5.12
2019-01-04T22:18:42.411Z,3.58
2019-01-04T22:24:12.066Z,3.30
2019-01-04T22:27:00.628Z,3.00
2019-01-04T22:29:49.172Z,3.40
2019-01-04T22:32:37.759Z,3.58
2019-01-04T22:35:26.884Z,4.70
2019-01-04T22:38:15.411Z,3.43
2019-01-04T22:40:56.299Z,3.13
2019-01-04T22:43:44.868Z,3.67
2019-01-04T22:46:33.411Z,4.50
2019-01-04T22:49:21.951Z,4.07
2019-01-04T22:52:10.480Z,3.83
2019-01-04T22:54:57.885Z,3.77
2019-01-04T22:57:46.453Z,4.50
2019-01-04T23:00:54.266Z,5.73
2019-01-04T23:03:42.953Z,3.65
2019-01-04T23:06:31.589Z,4.57
2019-01-04T23:09:20.113Z,4.07
2019-01-04T23:12:08.652Z,3.37
2019-01-04T23:14:57.222Z,4.33
2019-01-04T23:17:45.816Z,3.87
2019-01-04T23:20:34.723Z,3.77
2019-01-04T23:23:23.289Z,3.53
2019-01-04T23:26:11.871Z,3.40
2019-01-04T23:29:00.388Z,3.83
2019-01-04T23:31:48.992Z,3.55
2019-01-04T23:34:37.593Z,3.50
2019-01-04T23:37:26.129Z,3.00
2019-01-04T23:40:14.717Z,3.43
2019-01-04T23:43:03.266Z,3.53
2019-01-04T23:45:52.250Z,2.70
2019-01-04T23:48:40.812Z,3.20
2019-01-04T23:51:30.032Z,3.10
2019-01-04T23:54:19.196Z,3.05
2019-01-04T23:57:08.771Z,3.73
